Terminal Aerodrome Forecast
Issued by NWS

Home | Current Version | Previous Version | Text Only | Print | Product List | Glossary On
Versions: 1 2 3 4 5 6 7 8 9 10 11 12 13 14 15 16 17 18
000
FTUS41 KLWX 251700 RRA
TAFMTN
TAF
KMTN 251741Z 2518/2618 26007KT P6SM OVC050
     FM252100 VRB05KT P6SM OVC040
     FM260200 09008KT 5SM -RASN OVC025
     FM260600 07009KT 3SM -SN BKN006 OVC015
      TEMPO 2614/2618 1/2SM SN OVC005=

USA.gov is the U.S. government's official web portal to all federal, state and local government web resources and services.